sensor_id;sensor_type;location;lat;lon;timestamp;temperature;humidity
4908;DHT22;64375;51.540;7.364;2023-02-15T00:02:03;14.70;94.60
4908;DHT22;64375;51.540;7.364;2023-02-15T00:04:37;14.60;94.50
4908;DHT22;64375;51.540;7.364;2023-02-15T00:07:23;14.50;92.00
4908;DHT22;64375;51.540;7.364;2023-02-15T00:09:51;13.60;81.10
4908;DHT22;64375;51.540;7.364;2023-02-15T00:12:27;13.20;82.70
4908;DHT22;64375;51.540;7.364;2023-02-15T00:14:58;12.70;80.50
4908;DHT22;64375;51.540;7.364;2023-02-15T00:17:27;12.00;80.90
4908;DHT22;64375;51.540;7.364;2023-02-15T00:19:55;11.50;82.50
4908;DHT22;64375;51.540;7.364;2023-02-15T00:22:28;11.70;92.50
4908;DHT22;64375;51.540;7.364;2023-02-15T00:25:05;11.90;90.60
4908;DHT22;64375;51.540;7.364;2023-02-15T00:27:38;12.10;92.90
4908;DHT22;64375;51.540;7.364;2023-02-15T00:30:07;12.30;92.20
4908;DHT22;64375;51.540;7.364;2023-02-15T00:32:35;12.40;91.20
4908;DHT22;64375;51.540;7.364;2023-02-15T00:35:06;12.40;90.70
4908;DHT22;64375;51.540;7.364;2023-02-15T00:37:35;12.80;95.10
4908;DHT22;64375;51.540;7.364;2023-02-15T00:40:12;13.00;94.70
4908;DHT22;64375;51.540;7.364;2023-02-15T00:42:56;13.00;93.40
4908;DHT22;64375;51.540;7.364;2023-02-15T00:45:25;13.10;93.90
4908;DHT22;64375;51.540;7.364;2023-02-15T00:47:58;13.20;94.80
4908;DHT22;64375;51.540;7.364;2023-02-15T00:50:37;13.30;95.30
4908;DHT22;64375;51.540;7.364;2023-02-15T00:53:05;13.60;95.70
4908;DHT22;64375;51.540;7.364;2023-02-15T00:55:33;13.60;95.10
4908;DHT22;64375;51.540;7.364;2023-02-15T00:58:05;13.70;95.40
4908;DHT22;64375;51.540;7.364;2023-02-15T01:00:36;13.90;95.40
4908;DHT22;64375;51.540;7.364;2023-02-15T01:03:04;14.00;95.20
4908;DHT22;64375;51.540;7.364;2023-02-15T01:05:32;14.00;95.10
4908;DHT22;64375;51.540;7.364;2023-02-15T01:08:00;14.10;95.00
4908;DHT22;64375;51.540;7.364;2023-02-15T01:10:33;14.00;94.80
4908;DHT22;64375;51.540;7.364;2023-02-15T01:13:14;13.90;94.40
4908;DHT22;64375;51.540;7.364;2023-02-15T01:15:43;13.70;94.20
4908;DHT22;64375;51.540;7.364;2023-02-15T01:18:17;13.70;94.60
4908;DHT22;64375;51.540;7.364;2023-02-15T01:20:46;13.70;95.00
4908;DHT22;64375;51.540;7.364;2023-02-15T01:23:14;13.30;87.70
4908;DHT22;64375;51.540;7.364;2023-02-15T01:25:45;12.40;83.00
4908;DHT22;64375;51.540;7.364;2023-02-15T01:28:19;11.90;83.40
4908;DHT22;64375;51.540;7.364;2023-02-15T01:30:50;11.50;85.50
4908;DHT22;64375;51.540;7.364;2023-02-15T01:33:21;11.80;93.50
4908;DHT22;64375;51.540;7.364;2023-02-15T01:36:13;12.30;96.40
4908;DHT22;64375;51.540;7.364;2023-02-15T01:38:53;12.70;96.30
4908;DHT22;64375;51.540;7.364;2023-02-15T01:41:20;12.80;95.20
4908;DHT22;64375;51.540;7.364;2023-02-15T01:43:53;12.70;92.80
4908;DHT22;64375;51.540;7.364;2023-02-15T01:46:34;12.60;90.70
4908;DHT22;64375;51.540;7.364;2023-02-15T01:49:08;12.80;95.10
4908;DHT22;64375;51.540;7.364;2023-02-15T01:51:45;13.00;95.00
4908;DHT22;64375;51.540;7.364;2023-02-15T01:54:21;12.80;93.20
4908;DHT22;64375;51.540;7.364;2023-02-15T01:57:00;12.90;94.30
4908;DHT22;64375;51.540;7.364;2023-02-15T01:59:32;12.90;94.50
4908;DHT22;64375;51.540;7.364;2023-02-15T02:02:01;13.00;95.20
4908;DHT22;64375;51.540;7.364;2023-02-15T02:04:32;13.20;95.40
4908;DHT22;64375;51.540;7.364;2023-02-15T02:07:07;13.20;95.20
4908;DHT22;64375;51.540;7.364;2023-02-15T02:09:39;13.30;95.10
4908;DHT22;64375;51.540;7.364;2023-02-15T02:12:07;13.30;94.80
4908;DHT22;64375;51.540;7.364;2023-02-15T02:14:44;13.30;95.00
4908;DHT22;64375;51.540;7.364;2023-02-15T02:17:28;13.40;95.10
4908;DHT22;64375;51.540;7.364;2023-02-15T02:20:25;13.50;94.90
4908;DHT22;64375;51.540;7.364;2023-02-15T02:23:23;13.40;94.70
4908;DHT22;64375;51.540;7.364;2023-02-15T02:32:48;13.30;94.90
4908;DHT22;64375;51.540;7.364;2023-02-15T02:35:27;13.30;94.90
4908;DHT22;64375;51.540;7.364;2023-02-15T02:38:11;13.30;94.80
4908;DHT22;64375;51.540;7.364;2023-02-15T02:40:54;13.20;94.80
4908;DHT22;64375;51.540;7.364;2023-02-15T02:43:29;13.20;94.90
4908;DHT22;64375;51.540;7.364;2023-02-15T02:46:15;13.30;95.10
4908;DHT22;64375;51.540;7.364;2023-02-15T02:48:48;13.30;94.80
4908;DHT22;64375;51.540;7.364;2023-02-15T02:51:16;13.20;94.10
4908;DHT22;64375;51.540;7.364;2023-02-15T02:53:54;13.10;94.30
4908;DHT22;64375;51.540;7.364;2023-02-15T02:56:28;13.00;93.30
4908;DHT22;64375;51.540;7.364;2023-02-15T02:59:00;13.00;94.70
4908;DHT22;64375;51.540;7.364;2023-02-15T03:01:44;13.10;94.80
4908;DHT22;64375;51.540;7.364;2023-02-15T03:04:30;12.70;91.50
4908;DHT22;64375;51.540;7.364;2023-02-15T03:07:01;12.50;91.70
4908;DHT22;64375;51.540;7.364;2023-02-15T03:09:33;12.60;93.90
4908;DHT22;64375;51.540;7.364;2023-02-15T03:12:16;12.70;94.60
4908;DHT22;64375;51.540;7.364;2023-02-15T03:14:46;12.80;95.00
4908;DHT22;64375;51.540;7.364;2023-02-15T03:17:17;12.70;94.30
4908;DHT22;64375;51.540;7.364;2023-02-15T03:20:00;12.80;94.70
4908;DHT22;64375;51.540;7.364;2023-02-15T03:22:35;12.80;94.80
4908;DHT22;64375;51.540;7.364;2023-02-15T03:25:10;12.70;94.80
4908;DHT22;64375;51.540;7.364;2023-02-15T03:27:52;12.80;95.00
4908;DHT22;64375;51.540;7.364;2023-02-15T03:30:21;12.80;94.80
4908;DHT22;64375;51.540;7.364;2023-02-15T03:33:06;12.80;94.80
4908;DHT22;64375;51.540;7.364;2023-02-15T03:35:47;12.80;94.70
4908;DHT22;64375;51.540;7.364;2023-02-15T03:38:22;12.60;93.60
4908;DHT22;64375;51.540;7.364;2023-02-15T03:40:58;12.70;94.70
4908;DHT22;64375;51.540;7.364;2023-02-15T03:43:53;12.70;93.90
4908;DHT22;64375;51.540;7.364;2023-02-15T03:46:42;12.50;93.50
4908;DHT22;64375;51.540;7.364;2023-02-15T03:49:15;12.50;94.30
4908;DHT22;64375;51.540;7.364;2023-02-15T03:51:47;12.50;94.20
4908;DHT22;64375;51.540;7.364;2023-02-15T03:54:22;12.60;94.90
4908;DHT22;64375;51.540;7.364;2023-02-15T03:57:09;12.60;94.70
4908;DHT22;64375;51.540;7.364;2023-02-15T04:00:13;12.60;94.20
4908;DHT22;64375;51.540;7.364;2023-02-15T04:03:35;12.40;93.30
4908;DHT22;64375;51.540;7.364;2023-02-15T04:06:03;12.50;94.60
4908;DHT22;64375;51.540;7.364;2023-02-15T04:08:38;12.60;94.90
4908;DHT22;64375;51.540;7.364;2023-02-15T04:11:32;12.70;94.60
4908;DHT22;64375;51.540;7.364;2023-02-15T04:14:06;12.60;94.10
4908;DHT22;64375;51.540;7.364;2023-02-15T04:16:58;12.50;93.80
4908;DHT22;64375;51.540;7.364;2023-02-15T04:19:28;12.50;94.70
4908;DHT22;64375;51.540;7.364;2023-02-15T04:22:20;12.60;94.80
4908;DHT22;64375;51.540;7.364;2023-02-15T04:25:36;12.50;94.40
4908;DHT22;64375;51.540;7.364;2023-02-15T04:28:10;12.30;92.90
4908;DHT22;64375;51.540;7.364;2023-02-15T04:30:46;12.10;92.80
4908;DHT22;64375;51.540;7.364;2023-02-15T04:33:20;12.30;94.60
4908;DHT22;64375;51.540;7.364;2023-02-15T04:35:48;12.30;94.70
4908;DHT22;64375;51.540;7.364;2023-02-15T04:38:27;12.40;94.60
4908;DHT22;64375;51.540;7.364;2023-02-15T04:40:59;12.10;91.50
4908;DHT22;64375;51.540;7.364;2023-02-15T04:43:32;12.00;92.30
4908;DHT22;64375;51.540;7.364;2023-02-15T04:46:03;12.10;94.60
4908;DHT22;64375;51.540;7.364;2023-02-15T04:48:33;12.10;94.60
4908;DHT22;64375;51.540;7.364;2023-02-15T04:51:08;12.10;93.90
4908;DHT22;64375;51.540;7.364;2023-02-15T04:53:36;12.20;94.60
4908;DHT22;64375;51.540;7.364;2023-02-15T04:56:13;12.20;94.60
4908;DHT22;64375;51.540;7.364;2023-02-15T04:58:49;12.30;94.90
4908;DHT22;64375;51.540;7.364;2023-02-15T05:01:23;12.50;94.80
4908;DHT22;64375;51.540;7.364;2023-02-15T05:03:58;12.50;94.60
4908;DHT22;64375;51.540;7.364;2023-02-15T05:06:26;12.50;94.60
4908;DHT22;64375;51.540;7.364;2023-02-15T05:08:57;12.60;94.50
4908;DHT22;64375;51.540;7.364;2023-02-15T05:11:27;12.70;94.40
4908;DHT22;64375;51.540;7.364;2023-02-15T05:13:55;12.70;94.30
4908;DHT22;64375;51.540;7.364;2023-02-15T05:16:23;12.70;93.40
4908;DHT22;64375;51.540;7.364;2023-02-15T05:18:52;12.60;93.90
4908;DHT22;64375;51.540;7.364;2023-02-15T05:21:25;12.50;94.10
4908;DHT22;64375;51.540;7.364;2023-02-15T05:23:53;12.20;90.40
4908;DHT22;64375;51.540;7.364;2023-02-15T05:26:29;11.90;90.90
4908;DHT22;64375;51.540;7.364;2023-02-15T05:29:26;11.90;92.40
4908;DHT22;64375;51.540;7.364;2023-02-15T05:31:54;12.00;93.90
4908;DHT22;64375;51.540;7.364;2023-02-15T05:34:22;12.00;93.50
4908;DHT22;64375;51.540;7.364;2023-02-15T05:36:53;11.80;91.40
4908;DHT22;64375;51.540;7.364;2023-02-15T05:39:33;11.90;93.40
4908;DHT22;64375;51.540;7.364;2023-02-15T05:42:05;12.00;94.30
4908;DHT22;64375;51.540;7.364;2023-02-15T05:44:33;12.00;92.00
4908;DHT22;64375;51.540;7.364;2023-02-15T05:47:13;11.40;87.00
4908;DHT22;64375;51.540;7.364;2023-02-15T05:49:42;11.20;89.10
4908;DHT22;64375;51.540;7.364;2023-02-15T05:52:16;11.50;93.30
4908;DHT22;64375;51.540;7.364;2023-02-15T05:54:43;11.70;94.60
4908;DHT22;64375;51.540;7.364;2023-02-15T05:57:21;11.90;94.40
4908;DHT22;64375;51.540;7.364;2023-02-15T05:59:51;11.90;94.00
4908;DHT22;64375;51.540;7.364;2023-02-15T06:02:30;11.70;91.60
4908;DHT22;64375;51.540;7.364;2023-02-15T06:05:20;11.40;89.40
4908;DHT22;64375;51.540;7.364;2023-02-15T06:07:53;11.50;92.50
4908;DHT22;64375;51.540;7.364;2023-02-15T06:10:21;11.50;92.70
4908;DHT22;64375;51.540;7.364;2023-02-15T06:12:57;11.00;82.70
4908;DHT22;64375;51.540;7.364;2023-02-15T06:15:25;10.30;80.00
4908;DHT22;64375;51.540;7.364;2023-02-15T06:17:56;10.40;88.00
4908;DHT22;64375;51.540;7.364;2023-02-15T06:20:24;10.60;90.60
4908;DHT22;64375;51.540;7.364;2023-02-15T06:23:01;10.30;82.50
4908;DHT22;64375;51.540;7.364;2023-02-15T06:25:29;10.10;85.10
4908;DHT22;64375;51.540;7.364;2023-02-15T06:27:58;10.30;90.90
4908;DHT22;64375;51.540;7.364;2023-02-15T06:30:31;10.80;94.30
4908;DHT22;64375;51.540;7.364;2023-02-15T06:33:09;11.20;95.20
4908;DHT22;64375;51.540;7.364;2023-02-15T06:35:37;11.60;95.00
4908;DHT22;64375;51.540;7.364;2023-02-15T06:38:04;11.80;94.80
4908;DHT22;64375;51.540;7.364;2023-02-15T06:40:32;12.00;94.60
4908;DHT22;64375;51.540;7.364;2023-02-15T06:43:04;12.20;94.40
4908;DHT22;64375;51.540;7.364;2023-02-15T06:45:35;12.30;94.20
4908;DHT22;64375;51.540;7.364;2023-02-15T06:48:05;12.40;94.00
4908;DHT22;64375;51.540;7.364;2023-02-15T06:50:34;12.40;93.80
4908;DHT22;64375;51.540;7.364;2023-02-15T06:53:04;12.40;93.70
4908;DHT22;64375;51.540;7.364;2023-02-15T06:55:35;12.40;93.90
4908;DHT22;64375;51.540;7.364;2023-02-15T06:58:04;12.50;93.60
4908;DHT22;64375;51.540;7.364;2023-02-15T07:00:32;12.10;89.00
4908;DHT22;64375;51.540;7.364;2023-02-15T07:03:00;12.00;92.70
4908;DHT22;64375;51.540;7.364;2023-02-15T07:05:32;12.10;92.30
4908;DHT22;64375;51.540;7.364;2023-02-15T07:08:03;12.40;90.00
4908;DHT22;64375;51.540;7.364;2023-02-15T07:10:34;12.00;82.40
4908;DHT22;64375;51.540;7.364;2023-02-15T07:13:02;12.00;91.00
4908;DHT22;64375;51.540;7.364;2023-02-15T07:15:30;12.00;91.80
4908;DHT22;64375;51.540;7.364;2023-02-15T07:18:01;12.10;90.00
4908;DHT22;64375;51.540;7.364;2023-02-15T07:20:29;11.50;78.20
4908;DHT22;64375;51.540;7.364;2023-02-15T07:22:57;11.30;84.30
4908;DHT22;64375;51.540;7.364;2023-02-15T07:25:25;11.50;91.60
4908;DHT22;64375;51.540;7.364;2023-02-15T07:27:56;11.60;91.30
4908;DHT22;64375;51.540;7.364;2023-02-15T07:30:24;11.60;89.40
4908;DHT22;64375;51.540;7.364;2023-02-15T07:32:56;11.50;88.60
4908;DHT22;64375;51.540;7.364;2023-02-15T07:35:47;11.40;90.50
4908;DHT22;64375;51.540;7.364;2023-02-15T07:38:21;11.50;92.50
4908;DHT22;64375;51.540;7.364;2023-02-15T07:40:51;11.80;93.00
4908;DHT22;64375;51.540;7.364;2023-02-15T07:43:43;12.00;92.90
4908;DHT22;64375;51.540;7.364;2023-02-15T07:46:20;12.00;92.90
4908;DHT22;64375;51.540;7.364;2023-02-15T07:48:49;11.90;92.00
4908;DHT22;64375;51.540;7.364;2023-02-15T07:51:23;11.90;92.00
4908;DHT22;64375;51.540;7.364;2023-02-15T07:53:57;12.00;93.00
4908;DHT22;64375;51.540;7.364;2023-02-15T07:56:28;12.10;93.00
4908;DHT22;64375;51.540;7.364;2023-02-15T07:58:58;12.10;92.80
4908;DHT22;64375;51.540;7.364;2023-02-15T08:01:33;12.10;93.00
4908;DHT22;64375;51.540;7.364;2023-02-15T08:04:07;12.10;93.10
4908;DHT22;64375;51.540;7.364;2023-02-15T08:06:38;12.10;93.20
4908;DHT22;64375;51.540;7.364;2023-02-15T08:09:07;12.20;93.20
4908;DHT22;64375;51.540;7.364;2023-02-15T08:11:41;12.40;93.20
4908;DHT22;64375;51.540;7.364;2023-02-15T08:14:10;12.80;90.60
4908;DHT22;64375;51.540;7.364;2023-02-15T08:16:42;12.80;84.70
4908;DHT22;64375;51.540;7.364;2023-02-15T08:19:13;12.60;83.00
4908;DHT22;64375;51.540;7.364;2023-02-15T08:21:43;12.40;84.60
4908;DHT22;64375;51.540;7.364;2023-02-15T08:24:12;12.20;86.40
4908;DHT22;64375;51.540;7.364;2023-02-15T08:26:40;12.00;87.20
4908;DHT22;64375;51.540;7.364;2023-02-15T08:29:09;11.90;88.90
4908;DHT22;64375;51.540;7.364;2023-02-15T08:31:37;11.90;90.20
4908;DHT22;64375;51.540;7.364;2023-02-15T08:34:08;11.90;90.50
4908;DHT22;64375;51.540;7.364;2023-02-15T08:36:40;11.90;89.70
4908;DHT22;64375;51.540;7.364;2023-02-15T08:39:15;12.10;90.60
4908;DHT22;64375;51.540;7.364;2023-02-15T08:41:44;12.40;90.20
4908;DHT22;64375;51.540;7.364;2023-02-15T08:44:17;12.40;90.50
4908;DHT22;64375;51.540;7.364;2023-02-15T08:46:46;12.20;88.60
4908;DHT22;64375;51.540;7.364;2023-02-15T08:49:21;12.10;90.30
4908;DHT22;64375;51.540;7.364;2023-02-15T08:51:51;11.80;87.40
4908;DHT22;64375;51.540;7.364;2023-02-15T08:54:21;11.40;85.80
4908;DHT22;64375;51.540;7.364;2023-02-15T08:56:49;11.10;92.00
4908;DHT22;64375;51.540;7.364;2023-02-15T08:59:18;11.50;90.90
4908;DHT22;64375;51.540;7.364;2023-02-15T09:01:48;11.50;90.50
4908;DHT22;64375;51.540;7.364;2023-02-15T09:04:17;11.60;90.50
4908;DHT22;64375;51.540;7.364;2023-02-15T09:06:52;11.50;89.70
4908;DHT22;64375;51.540;7.364;2023-02-15T09:09:21;11.50;90.10
4908;DHT22;64375;51.540;7.364;2023-02-15T09:11:50;11.60;91.20
4908;DHT22;64375;51.540;7.364;2023-02-15T09:14:25;11.70;90.50
4908;DHT22;64375;51.540;7.364;2023-02-15T09:16:58;11.70;91.10
4908;DHT22;64375;51.540;7.364;2023-02-15T09:19:27;11.60;89.30
4908;DHT22;64375;51.540;7.364;2023-02-15T09:22:02;11.80;91.90
4908;DHT22;64375;51.540;7.364;2023-02-15T09:24:31;11.70;90.10
4908;DHT22;64375;51.540;7.364;2023-02-15T09:27:12;11.70;90.70
4908;DHT22;64375;51.540;7.364;2023-02-15T09:29:39;11.80;91.70
4908;DHT22;64375;51.540;7.364;2023-02-15T09:32:07;12.00;92.50
4908;DHT22;64375;51.540;7.364;2023-02-15T09:34:35;12.20;91.70
4908;DHT22;64375;51.540;7.364;2023-02-15T09:37:05;12.30;92.50
4908;DHT22;64375;51.540;7.364;2023-02-15T09:39:33;12.60;92.40
4908;DHT22;64375;51.540;7.364;2023-02-15T09:42:30;12.70;92.50
4908;DHT22;64375;51.540;7.364;2023-02-15T09:45:16;12.80;91.50
4908;DHT22;64375;51.540;7.364;2023-02-15T09:50:49;13.00;92.70
4908;DHT22;64375;51.540;7.364;2023-02-15T09:53:47;13.20;88.90
4908;DHT22;64375;51.540;7.364;2023-02-15T09:56:25;13.50;86.70
4908;DHT22;64375;51.540;7.364;2023-02-15T09:59:14;13.80;84.50
4908;DHT22;64375;51.540;7.364;2023-02-15T10:01:57;13.80;83.40
4908;DHT22;64375;51.540;7.364;2023-02-15T10:04:42;13.80;83.20
4908;DHT22;64375;51.540;7.364;2023-02-15T10:07:26;14.00;83.60
4908;DHT22;64375;51.540;7.364;2023-02-15T10:10:14;14.10;84.00
4908;DHT22;64375;51.540;7.364;2023-02-15T10:13:07;14.10;84.20
4908;DHT22;64375;51.540;7.364;2023-02-15T10:15:56;14.20;85.20
4908;DHT22;64375;51.540;7.364;2023-02-15T10:18:38;14.40;89.00
4908;DHT22;64375;51.540;7.364;2023-02-15T10:21:20;14.60;90.50
4908;DHT22;64375;51.540;7.364;2023-02-15T10:24:12;14.60;91.50
4908;DHT22;64375;51.540;7.364;2023-02-15T10:26:48;14.70;91.50
4908;DHT22;64375;51.540;7.364;2023-02-15T10:29:24;14.90;92.80
4908;DHT22;64375;51.540;7.364;2023-02-15T10:32:09;15.00;93.10
4908;DHT22;64375;51.540;7.364;2023-02-15T10:34:50;15.00;93.90
4908;DHT22;64375;51.540;7.364;2023-02-15T10:40:28;14.90;94.90
4908;DHT22;64375;51.540;7.364;2023-02-15T10:43:23;14.80;95.20
4908;DHT22;64375;51.540;7.364;2023-02-15T10:46:00;14.90;95.40
4908;DHT22;64375;51.540;7.364;2023-02-15T10:51:42;15.20;95.60
4908;DHT22;64375;51.540;7.364;2023-02-15T10:54:21;15.50;95.70
4908;DHT22;64375;51.540;7.364;2023-02-15T10:57:02;15.60;95.80
4908;DHT22;64375;51.540;7.364;2023-02-15T11:02:47;15.90;95.30
4908;DHT22;64375;51.540;7.364;2023-02-15T11:05:39;16.10;95.10
4908;DHT22;64375;51.540;7.364;2023-02-15T11:08:11;16.20;95.20
4908;DHT22;64375;51.540;7.364;2023-02-15T11:10:43;16.30;95.50
4908;DHT22;64375;51.540;7.364;2023-02-15T11:13:15;16.40;95.60
4908;DHT22;64375;51.540;7.364;2023-02-15T11:15:48;16.40;95.50
4908;DHT22;64375;51.540;7.364;2023-02-15T11:18:23;16.50;95.60
4908;DHT22;64375;51.540;7.364;2023-02-15T11:20:55;16.40;95.60
4908;DHT22;64375;51.540;7.364;2023-02-15T11:23:25;16.70;95.30
4908;DHT22;64375;51.540;7.364;2023-02-15T11:26:03;17.00;94.60
4908;DHT22;64375;51.540;7.364;2023-02-15T11:28:37;17.30;94.40
4908;DHT22;64375;51.540;7.364;2023-02-15T11:31:19;17.30;94.70
4908;DHT22;64375;51.540;7.364;2023-02-15T11:33:52;17.40;94.20
4908;DHT22;64375;51.540;7.364;2023-02-15T11:36:24;17.40;94.50
4908;DHT22;64375;51.540;7.364;2023-02-15T11:38:59;17.30;94.90
4908;DHT22;64375;51.540;7.364;2023-02-15T11:41:33;17.30;94.80
4908;DHT22;64375;51.540;7.364;2023-02-15T11:44:10;17.10;95.30
4908;DHT22;64375;51.540;7.364;2023-02-15T11:46:43;17.10;93.00
4908;DHT22;64375;51.540;7.364;2023-02-15T11:49:21;17.10;90.30
4908;DHT22;64375;51.540;7.364;2023-02-15T11:51:50;17.10;87.40
4908;DHT22;64375;51.540;7.364;2023-02-15T11:54:22;17.00;89.70
4908;DHT22;64375;51.540;7.364;2023-02-15T11:57:04;16.60;86.40
4908;DHT22;64375;51.540;7.364;2023-02-15T11:59:47;16.70;87.40
4908;DHT22;64375;51.540;7.364;2023-02-15T12:02:20;16.50;87.70
4908;DHT22;64375;51.540;7.364;2023-02-15T12:04:52;16.60;88.60
4908;DHT22;64375;51.540;7.364;2023-02-15T12:07:24;16.80;86.60
4908;DHT22;64375;51.540;7.364;2023-02-15T12:10:02;16.80;86.80
4908;DHT22;64375;51.540;7.364;2023-02-15T12:12:34;16.70;85.20
4908;DHT22;64375;51.540;7.364;2023-02-15T12:15:04;16.80;86.60
4908;DHT22;64375;51.540;7.364;2023-02-15T12:17:35;16.80;87.50
4908;DHT22;64375;51.540;7.364;2023-02-15T12:20:20;16.90;87.40
4908;DHT22;64375;51.540;7.364;2023-02-15T12:22:54;16.90;85.30
4908;DHT22;64375;51.540;7.364;2023-02-15T12:25:25;17.00;84.30
4908;DHT22;64375;51.540;7.364;2023-02-15T12:27:57;17.10;85.30
4908;DHT22;64375;51.540;7.364;2023-02-15T12:30:31;17.10;88.20
4908;DHT22;64375;51.540;7.364;2023-02-15T12:33:20;17.20;90.10
4908;DHT22;64375;51.540;7.364;2023-02-15T12:35:56;17.40;90.40
4908;DHT22;64375;51.540;7.364;2023-02-15T12:38:27;17.40;89.00
4908;DHT22;64375;51.540;7.364;2023-02-15T12:41:00;17.30;86.40
4908;DHT22;64375;51.540;7.364;2023-02-15T12:43:32;17.20;85.50
4908;DHT22;64375;51.540;7.364;2023-02-15T12:46:22;17.20;85.90
4908;DHT22;64375;51.540;7.364;2023-02-15T12:49:10;17.20;85.60
4908;DHT22;64375;51.540;7.364;2023-02-15T12:51:47;17.20;88.70
4908;DHT22;64375;51.540;7.364;2023-02-15T12:54:17;17.30;90.70
4908;DHT22;64375;51.540;7.364;2023-02-15T12:56:49;17.10;84.70
4908;DHT22;64375;51.540;7.364;2023-02-15T12:59:20;17.00;92.70
4908;DHT22;64375;51.540;7.364;2023-02-15T13:01:50;17.00;93.40
4908;DHT22;64375;51.540;7.364;2023-02-15T13:04:25;17.00;94.50
4908;DHT22;64375;51.540;7.364;2023-02-15T13:06:55;17.00;94.80
4908;DHT22;64375;51.540;7.364;2023-02-15T13:09:34;17.10;95.20
4908;DHT22;64375;51.540;7.364;2023-02-15T13:12:20;17.30;95.10
4908;DHT22;64375;51.540;7.364;2023-02-15T13:14:54;17.30;95.70
4908;DHT22;64375;51.540;7.364;2023-02-15T13:17:26;17.30;95.30
4908;DHT22;64375;51.540;7.364;2023-02-15T13:20:00;17.40;95.90
4908;DHT22;64375;51.540;7.364;2023-02-15T13:22:36;17.50;96.30
4908;DHT22;64375;51.540;7.364;2023-02-15T13:25:21;17.60;96.20
4908;DHT22;64375;51.540;7.364;2023-02-15T13:28:00;17.60;96.60
4908;DHT22;64375;51.540;7.364;2023-02-15T13:30:32;17.90;96.50
4908;DHT22;64375;51.540;7.364;2023-02-15T13:33:12;17.90;96.70
4908;DHT22;64375;51.540;7.364;2023-02-15T13:35:53;17.90;96.70
4908;DHT22;64375;51.540;7.364;2023-02-15T13:41:58;18.60;95.50
4908;DHT22;64375;51.540;7.364;2023-02-15T13:47:49;18.60;95.90
4908;DHT22;64375;51.540;7.364;2023-02-15T13:50:43;18.70;95.60
4908;DHT22;64375;51.540;7.364;2023-02-15T13:53:39;18.60;96.00
4908;DHT22;64375;51.540;7.364;2023-02-15T13:56:15;18.70;95.80
4908;DHT22;64375;51.540;7.364;2023-02-15T13:59:19;18.80;95.60
4908;DHT22;64375;51.540;7.364;2023-02-15T14:01:56;18.90;95.50
4908;DHT22;64375;51.540;7.364;2023-02-15T14:07:46;18.70;96.00
4908;DHT22;64375;51.540;7.364;2023-02-15T14:10:37;18.70;96.40
4908;DHT22;64375;51.540;7.364;2023-02-15T14:16:39;18.60;96.80
4908;DHT22;64375;51.540;7.364;2023-02-15T14:19:53;18.60;96.70
4908;DHT22;64375;51.540;7.364;2023-02-15T14:22:30;18.60;96.60
4908;DHT22;64375;51.540;7.364;2023-02-15T14:25:15;18.80;96.70
4908;DHT22;64375;51.540;7.364;2023-02-15T14:27:56;18.90;96.30
4908;DHT22;64375;51.540;7.364;2023-02-15T14:30:33;19.10;95.90
4908;DHT22;64375;51.540;7.364;2023-02-15T14:33:28;19.20;95.70
4908;DHT22;64375;51.540;7.364;2023-02-15T14:36:00;19.20;95.80
4908;DHT22;64375;51.540;7.364;2023-02-15T14:38:50;19.10;96.00
4908;DHT22;64375;51.540;7.364;2023-02-15T14:41:28;18.90;96.50
4908;DHT22;64375;51.540;7.364;2023-02-15T14:44:04;19.00;96.20
4908;DHT22;64375;51.540;7.364;2023-02-15T14:46:38;19.00;96.50
4908;DHT22;64375;51.540;7.364;2023-02-15T14:49:19;18.90;96.60
4908;DHT22;64375;51.540;7.364;2023-02-15T14:52:03;19.00;96.30
4908;DHT22;64375;51.540;7.364;2023-02-15T14:54:58;19.10;96.50
4908;DHT22;64375;51.540;7.364;2023-02-15T14:57:33;19.10;96.20
4908;DHT22;64375;51.540;7.364;2023-02-15T15:03:22;19.20;96.20
4908;DHT22;64375;51.540;7.364;2023-02-15T15:05:53;19.20;96.00
4908;DHT22;64375;51.540;7.364;2023-02-15T15:08:26;18.90;96.80
4908;DHT22;64375;51.540;7.364;2023-02-15T15:10:55;18.90;96.90
4908;DHT22;64375;51.540;7.364;2023-02-15T15:13:53;18.90;97.10
4908;DHT22;64375;51.540;7.364;2023-02-15T15:16:48;18.90;97.40
4908;DHT22;64375;51.540;7.364;2023-02-15T15:22:47;18.80;97.60
4908;DHT22;64375;51.540;7.364;2023-02-15T15:25:42;18.80;97.60
4908;DHT22;64375;51.540;7.364;2023-02-15T15:28:58;18.70;97.70
4908;DHT22;64375;51.540;7.364;2023-02-15T15:31:32;18.50;97.90
4908;DHT22;64375;51.540;7.364;2023-02-15T15:38:08;18.30;94.90
4908;DHT22;64375;51.540;7.364;2023-02-15T15:41:22;18.20;95.30
4908;DHT22;64375;51.540;7.364;2023-02-15T15:44:26;18.20;95.70
4908;DHT22;64375;51.540;7.364;2023-02-15T15:50:00;18.30;96.60
4908;DHT22;64375;51.540;7.364;2023-02-15T15:52:30;18.30;96.70
4908;DHT22;64375;51.540;7.364;2023-02-15T15:55:15;18.20;96.70
4908;DHT22;64375;51.540;7.364;2023-02-15T15:57:46;18.20;97.30
4908;DHT22;64375;51.540;7.364;2023-02-15T16:00:35;18.20;97.40
4908;DHT22;64375;51.540;7.364;2023-02-15T16:03:12;18.20;97.30
4908;DHT22;64375;51.540;7.364;2023-02-15T16:05:47;18.20;97.50
4908;DHT22;64375;51.540;7.364;2023-02-15T16:08:26;18.30;97.80
4908;DHT22;64375;51.540;7.364;2023-02-15T16:10:56;18.50;97.70
4908;DHT22;64375;51.540;7.364;2023-02-15T16:13:36;18.30;91.50
4908;DHT22;64375;51.540;7.364;2023-02-15T16:16:06;18.30;91.40
4908;DHT22;64375;51.540;7.364;2023-02-15T16:18:37;18.40;92.40
4908;DHT22;64375;51.540;7.364;2023-02-15T16:21:16;18.50;92.90
4908;DHT22;64375;51.540;7.364;2023-02-15T16:29:56;18.30;93.80
4908;DHT22;64375;51.540;7.364;2023-02-15T16:32:33;18.20;94.20
4908;DHT22;64375;51.540;7.364;2023-02-15T16:35:12;18.20;94.70
4908;DHT22;64375;51.540;7.364;2023-02-15T16:37:44;18.10;94.90
4908;DHT22;64375;51.540;7.364;2023-02-15T16:40:43;18.10;95.20
4908;DHT22;64375;51.540;7.364;2023-02-15T16:43:21;18.10;95.70
4908;DHT22;64375;51.540;7.364;2023-02-15T16:45:51;18.10;95.70
4908;DHT22;64375;51.540;7.364;2023-02-15T16:48:29;18.10;95.80
4908;DHT22;64375;51.540;7.364;2023-02-15T16:50:58;18.20;96.10
4908;DHT22;64375;51.540;7.364;2023-02-15T16:53:28;18.20;96.10
4908;DHT22;64375;51.540;7.364;2023-02-15T16:55:58;18.10;96.00
4908;DHT22;64375;51.540;7.364;2023-02-15T16:58:30;18.10;96.30
4908;DHT22;64375;51.540;7.364;2023-02-15T17:01:00;18.10;96.40
4908;DHT22;64375;51.540;7.364;2023-02-15T17:03:38;18.10;96.40
4908;DHT22;64375;51.540;7.364;2023-02-15T17:06:19;18.10;96.50
4908;DHT22;64375;51.540;7.364;2023-02-15T17:08:50;18.10;96.70
4908;DHT22;64375;51.540;7.364;2023-02-15T17:11:40;18.10;92.00
4908;DHT22;64375;51.540;7.364;2023-02-15T17:17:07;18.00;96.30
4908;DHT22;64375;51.540;7.364;2023-02-15T17:19:47;18.10;96.60
4908;DHT22;64375;51.540;7.364;2023-02-15T17:22:21;18.10;95.00
4908;DHT22;64375;51.540;7.364;2023-02-15T17:24:58;18.10;96.70
4908;DHT22;64375;51.540;7.364;2023-02-15T17:27:28;18.20;96.70
4908;DHT22;64375;51.540;7.364;2023-02-15T17:30:15;18.20;94.10
4908;DHT22;64375;51.540;7.364;2023-02-15T17:32:53;18.10;92.70
4908;DHT22;64375;51.540;7.364;2023-02-15T17:35:22;18.00;93.10
4908;DHT22;64375;51.540;7.364;2023-02-15T17:38:01;17.90;93.50